sensor_id;sensor_type;location;lat;lon;timestamp;temperature;humidity
34985;DHT22;21190;58.750;17.004;2022-12-07T00:01:09;-3.40;99.90
34985;DHT22;21190;58.750;17.004;2022-12-07T00:03:38;-3.40;99.90
34985;DHT22;21190;58.750;17.004;2022-12-07T00:06:06;-3.30;99.90
34985;DHT22;21190;58.750;17.004;2022-12-07T00:08:34;-3.20;99.90
34985;DHT22;21190;58.750;17.004;2022-12-07T00:11:11;-3.30;99.90
34985;DHT22;21190;58.750;17.004;2022-12-07T00:13:38;-3.40;99.90
34985;DHT22;21190;58.750;17.004;2022-12-07T00:16:09;-3.40;99.90
34985;DHT22;21190;58.750;17.004;2022-12-07T00:18:36;-3.50;99.90
34985;DHT22;21190;58.750;17.004;2022-12-07T00:21:04;-3.50;99.90
34985;DHT22;21190;58.750;17.004;2022-12-07T00:23:32;-3.50;99.90
34985;DHT22;21190;58.750;17.004;2022-12-07T00:26:05;-3.50;99.90
34985;DHT22;21190;58.750;17.004;2022-12-07T00:28:33;-3.50;99.90
34985;DHT22;21190;58.750;17.004;2022-12-07T00:31:01;-3.60;99.90
34985;DHT22;21190;58.750;17.004;2022-12-07T00:33:28;-3.60;99.90
34985;DHT22;21190;58.750;17.004;2022-12-07T00:35:56;-3.60;99.90
34985;DHT22;21190;58.750;17.004;2022-12-07T00:38:23;-3.60;99.90
34985;DHT22;21190;58.750;17.004;2022-12-07T00:40:54;-3.70;99.90
34985;DHT22;21190;58.750;17.004;2022-12-07T00:43:21;-3.70;99.90
34985;DHT22;21190;58.750;17.004;2022-12-07T00:45:47;-3.70;99.90
34985;DHT22;21190;58.750;17.004;2022-12-07T00:48:14;-3.80;99.90
34985;DHT22;21190;58.750;17.004;2022-12-07T00:50:41;-3.80;99.90
34985;DHT22;21190;58.750;17.004;2022-12-07T00:53:08;-3.80;99.90
34985;DHT22;21190;58.750;17.004;2022-12-07T00:55:35;-3.80;99.90
34985;DHT22;21190;58.750;17.004;2022-12-07T00:58:02;-3.90;99.90
34985;DHT22;21190;58.750;17.004;2022-12-07T01:00:30;-3.90;99.90
34985;DHT22;21190;58.750;17.004;2022-12-07T01:02:56;-4.00;99.90
34985;DHT22;21190;58.750;17.004;2022-12-07T01:05:23;-4.00;99.90
34985;DHT22;21190;58.750;17.004;2022-12-07T01:07:50;-4.00;99.90
34985;DHT22;21190;58.750;17.004;2022-12-07T01:10:17;-4.10;99.90
34985;DHT22;21190;58.750;17.004;2022-12-07T01:12:44;-4.20;99.90
34985;DHT22;21190;58.750;17.004;2022-12-07T01:15:11;-4.30;99.90
34985;DHT22;21190;58.750;17.004;2022-12-07T01:17:38;-4.20;99.90
34985;DHT22;21190;58.750;17.004;2022-12-07T01:20:05;-4.20;99.90
34985;DHT22;21190;58.750;17.004;2022-12-07T01:22:36;-4.30;99.90
34985;DHT22;21190;58.750;17.004;2022-12-07T01:25:04;-4.30;99.90
34985;DHT22;21190;58.750;17.004;2022-12-07T01:27:32;-4.30;99.90
34985;DHT22;21190;58.750;17.004;2022-12-07T01:29:59;-4.30;99.90
34985;DHT22;21190;58.750;17.004;2022-12-07T01:32:27;-4.40;99.90
34985;DHT22;21190;58.750;17.004;2022-12-07T01:34:53;-4.40;99.90
34985;DHT22;21190;58.750;17.004;2022-12-07T01:37:20;-4.50;99.90
34985;DHT22;21190;58.750;17.004;2022-12-07T01:39:48;-4.40;99.90
34985;DHT22;21190;58.750;17.004;2022-12-07T01:42:15;-4.50;99.90
34985;DHT22;21190;58.750;17.004;2022-12-07T01:47:27;-4.50;99.90
34985;DHT22;21190;58.750;17.004;2022-12-07T01:49:55;-4.60;99.90
34985;DHT22;21190;58.750;17.004;2022-12-07T01:52:23;-4.60;99.90
34985;DHT22;21190;58.750;17.004;2022-12-07T01:54:51;-4.60;99.90
34985;DHT22;21190;58.750;17.004;2022-12-07T01:57:20;-4.60;99.90
34985;DHT22;21190;58.750;17.004;2022-12-07T01:59:47;-4.60;99.90
34985;DHT22;21190;58.750;17.004;2022-12-07T02:02:19;-4.60;99.90
34985;DHT22;21190;58.750;17.004;2022-12-07T02:04:46;-4.70;99.90
34985;DHT22;21190;58.750;17.004;2022-12-07T02:07:13;-4.70;99.90
34985;DHT22;21190;58.750;17.004;2022-12-07T02:09:41;-4.80;99.90
34985;DHT22;21190;58.750;17.004;2022-12-07T02:12:08;-4.80;99.90
34985;DHT22;21190;58.750;17.004;2022-12-07T02:14:34;-4.80;99.90
34985;DHT22;21190;58.750;17.004;2022-12-07T02:30:03;-4.80;99.90
34985;DHT22;21190;58.750;17.004;2022-12-07T02:35:02;-4.90;99.90
34985;DHT22;21190;58.750;17.004;2022-12-07T02:37:36;-4.90;99.90
34985;DHT22;21190;58.750;17.004;2022-12-07T02:42:38;-4.80;99.90
34985;DHT22;21190;58.750;17.004;2022-12-07T02:45:07;-4.90;99.90
34985;DHT22;21190;58.750;17.004;2022-12-07T02:47:35;-5.00;99.90
34985;DHT22;21190;58.750;17.004;2022-12-07T02:50:03;-5.00;99.90
34985;DHT22;21190;58.750;17.004;2022-12-07T02:52:30;-4.90;99.90
34985;DHT22;21190;58.750;17.004;2022-12-07T02:54:57;-5.00;99.90
34985;DHT22;21190;58.750;17.004;2022-12-07T03:00:07;-5.00;99.90
34985;DHT22;21190;58.750;17.004;2022-12-07T03:02:46;-5.00;99.90
34985;DHT22;21190;58.750;17.004;2022-12-07T03:07:51;-5.00;99.90
34985;DHT22;21190;58.750;17.004;2022-12-07T03:15:16;-4.90;99.90
34985;DHT22;21190;58.750;17.004;2022-12-07T03:17:45;-4.90;99.90
34985;DHT22;21190;58.750;17.004;2022-12-07T03:20:13;-4.90;99.90
34985;DHT22;21190;58.750;17.004;2022-12-07T03:22:42;-4.90;99.90
34985;DHT22;21190;58.750;17.004;2022-12-07T03:25:10;-4.90;99.90
34985;DHT22;21190;58.750;17.004;2022-12-07T03:28:00;-4.90;99.90
34985;DHT22;21190;58.750;17.004;2022-12-07T03:30:29;-4.90;99.90
34985;DHT22;21190;58.750;17.004;2022-12-07T03:35:30;-4.80;99.90
34985;DHT22;21190;58.750;17.004;2022-12-07T03:38:00;-4.80;99.90
34985;DHT22;21190;58.750;17.004;2022-12-07T03:40:37;-4.80;99.90
34985;DHT22;21190;58.750;17.004;2022-12-07T03:43:06;-4.80;99.90
34985;DHT22;21190;58.750;17.004;2022-12-07T03:48:08;-4.80;99.90
34985;DHT22;21190;58.750;17.004;2022-12-07T03:53:09;-4.70;99.90
34985;DHT22;21190;58.750;17.004;2022-12-07T03:55:39;-4.70;99.90
34985;DHT22;21190;58.750;17.004;2022-12-07T03:58:12;-4.70;99.90
34985;DHT22;21190;58.750;17.004;2022-12-07T04:00:41;-4.60;99.90
34985;DHT22;21190;58.750;17.004;2022-12-07T04:03:08;-4.60;99.90
34985;DHT22;21190;58.750;17.004;2022-12-07T04:05:35;-4.60;99.90
34985;DHT22;21190;58.750;17.004;2022-12-07T04:08:02;-4.70;99.90
34985;DHT22;21190;58.750;17.004;2022-12-07T04:10:29;-4.70;99.90
34985;DHT22;21190;58.750;17.004;2022-12-07T04:12:56;-4.70;99.90
34985;DHT22;21190;58.750;17.004;2022-12-07T04:15:23;-4.70;99.90
34985;DHT22;21190;58.750;17.004;2022-12-07T04:17:50;-4.70;99.90
34985;DHT22;21190;58.750;17.004;2022-12-07T04:20:17;-4.70;99.90
34985;DHT22;21190;58.750;17.004;2022-12-07T04:22:44;-4.70;99.90
34985;DHT22;21190;58.750;17.004;2022-12-07T04:25:11;-4.70;99.90
34985;DHT22;21190;58.750;17.004;2022-12-07T04:27:38;-4.70;99.90
34985;DHT22;21190;58.750;17.004;2022-12-07T04:30:05;-4.80;99.90
34985;DHT22;21190;58.750;17.004;2022-12-07T04:32:32;-4.80;99.90
34985;DHT22;21190;58.750;17.004;2022-12-07T04:34:59;-4.70;99.90
34985;DHT22;21190;58.750;17.004;2022-12-07T04:37:25;-4.70;99.90
34985;DHT22;21190;58.750;17.004;2022-12-07T04:39:52;-4.70;99.90
34985;DHT22;21190;58.750;17.004;2022-12-07T04:42:20;-4.80;99.90
34985;DHT22;21190;58.750;17.004;2022-12-07T04:44:47;-4.80;99.90
34985;DHT22;21190;58.750;17.004;2022-12-07T04:47:13;-4.90;99.90
34985;DHT22;21190;58.750;17.004;2022-12-07T04:49:40;-4.90;99.90
34985;DHT22;21190;58.750;17.004;2022-12-07T04:52:07;-4.80;99.90
34985;DHT22;21190;58.750;17.004;2022-12-07T04:54:34;-4.70;99.90
34985;DHT22;21190;58.750;17.004;2022-12-07T04:57:01;-4.70;99.90
34985;DHT22;21190;58.750;17.004;2022-12-07T04:59:28;-4.80;99.90
34985;DHT22;21190;58.750;17.004;2022-12-07T05:01:54;-4.90;99.90
34985;DHT22;21190;58.750;17.004;2022-12-07T05:04:21;-4.90;99.90
34985;DHT22;21190;58.750;17.004;2022-12-07T05:06:48;-5.00;99.90
34985;DHT22;21190;58.750;17.004;2022-12-07T05:09:15;-5.10;99.90
34985;DHT22;21190;58.750;17.004;2022-12-07T05:11:42;-5.10;99.90
34985;DHT22;21190;58.750;17.004;2022-12-07T05:14:14;-5.10;99.90
34985;DHT22;21190;58.750;17.004;2022-12-07T05:16:41;-5.00;99.90
34985;DHT22;21190;58.750;17.004;2022-12-07T05:19:09;-5.10;99.90
34985;DHT22;21190;58.750;17.004;2022-12-07T05:21:36;-5.10;99.90
34985;DHT22;21190;58.750;17.004;2022-12-07T05:24:04;-4.90;99.90
34985;DHT22;21190;58.750;17.004;2022-12-07T05:26:31;-5.00;99.90
34985;DHT22;21190;58.750;17.004;2022-12-07T05:28:58;-5.10;99.90
34985;DHT22;21190;58.750;17.004;2022-12-07T05:31:25;-5.10;99.90
34985;DHT22;21190;58.750;17.004;2022-12-07T05:33:52;-5.10;99.90
34985;DHT22;21190;58.750;17.004;2022-12-07T05:36:19;-5.00;99.90
34985;DHT22;21190;58.750;17.004;2022-12-07T05:38:46;-5.00;99.90
34985;DHT22;21190;58.750;17.004;2022-12-07T05:41:14;-5.00;99.90
34985;DHT22;21190;58.750;17.004;2022-12-07T05:44:00;-5.10;99.90
34985;DHT22;21190;58.750;17.004;2022-12-07T05:46:27;-5.10;99.90
34985;DHT22;21190;58.750;17.004;2022-12-07T05:48:54;-5.10;99.90
34985;DHT22;21190;58.750;17.004;2022-12-07T05:51:21;-5.10;99.90
34985;DHT22;21190;58.750;17.004;2022-12-07T05:53:48;-5.20;99.90
34985;DHT22;21190;58.750;17.004;2022-12-07T05:56:15;-5.00;99.90
34985;DHT22;21190;58.750;17.004;2022-12-07T05:58:41;-5.00;99.90
34985;DHT22;21190;58.750;17.004;2022-12-07T06:01:27;-4.90;99.90
34985;DHT22;21190;58.750;17.004;2022-12-07T06:03:54;-4.90;99.90
34985;DHT22;21190;58.750;17.004;2022-12-07T06:06:21;-4.90;99.90
34985;DHT22;21190;58.750;17.004;2022-12-07T06:08:48;-4.90;99.90
34985;DHT22;21190;58.750;17.004;2022-12-07T06:11:15;-4.80;99.90
34985;DHT22;21190;58.750;17.004;2022-12-07T06:14:00;-4.70;99.90
34985;DHT22;21190;58.750;17.004;2022-12-07T06:16:28;-4.70;99.90
34985;DHT22;21190;58.750;17.004;2022-12-07T06:18:55;-4.80;99.90
34985;DHT22;21190;58.750;17.004;2022-12-07T06:21:21;-4.80;99.90
34985;DHT22;21190;58.750;17.004;2022-12-07T06:23:48;-4.80;99.90
34985;DHT22;21190;58.750;17.004;2022-12-07T06:26:15;-4.80;99.90
34985;DHT22;21190;58.750;17.004;2022-12-07T06:28:42;-4.80;99.90
34985;DHT22;21190;58.750;17.004;2022-12-07T06:31:09;-4.80;99.90
34985;DHT22;21190;58.750;17.004;2022-12-07T06:33:40;-4.90;99.90
34985;DHT22;21190;58.750;17.004;2022-12-07T06:36:07;-4.90;99.90
34985;DHT22;21190;58.750;17.004;2022-12-07T06:38:34;-4.90;99.90
34985;DHT22;21190;58.750;17.004;2022-12-07T06:41:01;-4.90;99.90
34985;DHT22;21190;58.750;17.004;2022-12-07T06:43:28;-4.90;99.90
34985;DHT22;21190;58.750;17.004;2022-12-07T06:45:54;-4.90;99.90
34985;DHT22;21190;58.750;17.004;2022-12-07T06:48:21;-4.90;99.90
34985;DHT22;21190;58.750;17.004;2022-12-07T06:50:49;-4.90;99.90
34985;DHT22;21190;58.750;17.004;2022-12-07T06:53:21;-5.00;99.90
34985;DHT22;21190;58.750;17.004;2022-12-07T06:55:48;-4.90;99.90
34985;DHT22;21190;58.750;17.004;2022-12-07T06:58:15;-4.80;99.90
34985;DHT22;21190;58.750;17.004;2022-12-07T07:00:42;-4.80;99.90
34985;DHT22;21190;58.750;17.004;2022-12-07T07:03:09;-4.70;99.90
34985;DHT22;21190;58.750;17.004;2022-12-07T07:05:36;-4.80;99.90
34985;DHT22;21190;58.750;17.004;2022-12-07T07:08:03;-4.90;99.90
34985;DHT22;21190;58.750;17.004;2022-12-07T07:10:47;-4.80;99.90
34985;DHT22;21190;58.750;17.004;2022-12-07T07:13:14;-4.80;99.90
34985;DHT22;21190;58.750;17.004;2022-12-07T07:15:41;-4.70;99.90
34985;DHT22;21190;58.750;17.004;2022-12-07T07:18:09;-4.80;99.90
34985;DHT22;21190;58.750;17.004;2022-12-07T07:20:36;-4.90;99.90
34985;DHT22;21190;58.750;17.004;2022-12-07T07:23:03;-4.80;99.90
34985;DHT22;21190;58.750;17.004;2022-12-07T07:25:30;-4.90;99.90
34985;DHT22;21190;58.750;17.004;2022-12-07T07:27:57;-4.80;99.90
34985;DHT22;21190;58.750;17.004;2022-12-07T07:30:24;-4.90;99.90
34985;DHT22;21190;58.750;17.004;2022-12-07T07:32:51;-4.90;99.90
34985;DHT22;21190;58.750;17.004;2022-12-07T07:35:18;-4.90;99.90
34985;DHT22;21190;58.750;17.004;2022-12-07T07:37:44;-4.90;99.90
34985;DHT22;21190;58.750;17.004;2022-12-07T07:40:11;-4.80;99.90
34985;DHT22;21190;58.750;17.004;2022-12-07T07:42:38;-4.80;99.90
34985;DHT22;21190;58.750;17.004;2022-12-07T07:45:05;-4.80;99.90
34985;DHT22;21190;58.750;17.004;2022-12-07T07:47:32;-4.80;99.90
34985;DHT22;21190;58.750;17.004;2022-12-07T07:49:59;-4.70;99.90
34985;DHT22;21190;58.750;17.004;2022-12-07T07:52:26;-4.70;99.90
34985;DHT22;21190;58.750;17.004;2022-12-07T07:54:53;-4.60;99.90
34985;DHT22;21190;58.750;17.004;2022-12-07T07:57:20;-4.50;99.90
34985;DHT22;21190;58.750;17.004;2022-12-07T07:59:47;-4.60;99.90
34985;DHT22;21190;58.750;17.004;2022-12-07T08:02:15;-4.60;99.90
34985;DHT22;21190;58.750;17.004;2022-12-07T08:04:42;-4.60;99.90
34985;DHT22;21190;58.750;17.004;2022-12-07T08:07:10;-4.40;99.90
34985;DHT22;21190;58.750;17.004;2022-12-07T08:09:37;-4.50;99.90
34985;DHT22;21190;58.750;17.004;2022-12-07T08:12:04;-4.40;99.90
34985;DHT22;21190;58.750;17.004;2022-12-07T08:14:31;-4.40;99.90
34985;DHT22;21190;58.750;17.004;2022-12-07T08:16:58;-4.40;99.90
34985;DHT22;21190;58.750;17.004;2022-12-07T08:19:25;-4.40;99.90
34985;DHT22;21190;58.750;17.004;2022-12-07T08:21:52;-4.40;99.90
34985;DHT22;21190;58.750;17.004;2022-12-07T08:24:19;-4.40;99.90
34985;DHT22;21190;58.750;17.004;2022-12-07T08:26:46;-4.30;99.90
34985;DHT22;21190;58.750;17.004;2022-12-07T08:29:13;-4.20;99.90
34985;DHT22;21190;58.750;17.004;2022-12-07T08:31:40;-4.20;99.90
34985;DHT22;21190;58.750;17.004;2022-12-07T08:34:07;-4.10;99.90
34985;DHT22;21190;58.750;17.004;2022-12-07T08:36:34;-4.20;99.90
34985;DHT22;21190;58.750;17.004;2022-12-07T08:39:02;-4.10;99.90
34985;DHT22;21190;58.750;17.004;2022-12-07T08:41:49;-4.10;99.90
34985;DHT22;21190;58.750;17.004;2022-12-07T08:44:16;-4.00;99.90
34985;DHT22;21190;58.750;17.004;2022-12-07T08:46:47;-3.90;99.90
34985;DHT22;21190;58.750;17.004;2022-12-07T08:49:20;-3.90;99.90
34985;DHT22;21190;58.750;17.004;2022-12-07T08:51:49;-3.90;99.90
34985;DHT22;21190;58.750;17.004;2022-12-07T08:54:16;-3.80;99.90
34985;DHT22;21190;58.750;17.004;2022-12-07T08:56:44;-3.70;99.90
34985;DHT22;21190;58.750;17.004;2022-12-07T08:59:12;-3.70;99.90
34985;DHT22;21190;58.750;17.004;2022-12-07T09:01:40;-3.70;99.90
34985;DHT22;21190;58.750;17.004;2022-12-07T09:04:07;-3.60;99.90
34985;DHT22;21190;58.750;17.004;2022-12-07T09:06:34;-3.60;99.90
34985;DHT22;21190;58.750;17.004;2022-12-07T09:09:01;-3.60;99.90
34985;DHT22;21190;58.750;17.004;2022-12-07T09:11:28;-3.60;99.90
34985;DHT22;21190;58.750;17.004;2022-12-07T09:13:56;-3.50;99.90
34985;DHT22;21190;58.750;17.004;2022-12-07T09:16:23;-3.50;99.90
34985;DHT22;21190;58.750;17.004;2022-12-07T09:18:50;-3.40;99.90
34985;DHT22;21190;58.750;17.004;2022-12-07T09:21:16;-3.40;99.90
34985;DHT22;21190;58.750;17.004;2022-12-07T09:23:43;-3.40;99.90
34985;DHT22;21190;58.750;17.004;2022-12-07T09:26:10;-3.40;99.90
34985;DHT22;21190;58.750;17.004;2022-12-07T09:28:38;-3.30;99.90
34985;DHT22;21190;58.750;17.004;2022-12-07T09:31:05;-3.30;99.90
34985;DHT22;21190;58.750;17.004;2022-12-07T09:33:56;-3.20;99.90
34985;DHT22;21190;58.750;17.004;2022-12-07T09:36:24;-3.20;99.90
34985;DHT22;21190;58.750;17.004;2022-12-07T09:38:51;-3.20;99.90
34985;DHT22;21190;58.750;17.004;2022-12-07T09:41:18;-3.20;99.90
34985;DHT22;21190;58.750;17.004;2022-12-07T09:43:46;-3.10;99.90
34985;DHT22;21190;58.750;17.004;2022-12-07T09:46:14;-3.10;99.90
34985;DHT22;21190;58.750;17.004;2022-12-07T09:48:42;-3.10;99.90
34985;DHT22;21190;58.750;17.004;2022-12-07T09:51:14;-3.10;99.90
34985;DHT22;21190;58.750;17.004;2022-12-07T09:53:48;-3.00;99.90
34985;DHT22;21190;58.750;17.004;2022-12-07T09:56:16;-3.00;99.90
34985;DHT22;21190;58.750;17.004;2022-12-07T09:58:43;-3.00;99.90
34985;DHT22;21190;58.750;17.004;2022-12-07T10:01:12;-3.00;99.90
34985;DHT22;21190;58.750;17.004;2022-12-07T10:03:41;-3.00;99.90
34985;DHT22;21190;58.750;17.004;2022-12-07T10:06:10;-2.90;99.90
34985;DHT22;21190;58.750;17.004;2022-12-07T10:08:37;-3.10;99.90
34985;DHT22;21190;58.750;17.004;2022-12-07T10:11:04;-3.00;99.90
34985;DHT22;21190;58.750;17.004;2022-12-07T10:13:43;-3.00;99.90
34985;DHT22;21190;58.750;17.004;2022-12-07T10:18:51;-3.00;99.90
34985;DHT22;21190;58.750;17.004;2022-12-07T10:21:19;-3.00;99.90
34985;DHT22;21190;58.750;17.004;2022-12-07T10:24:13;-3.00;99.90
34985;DHT22;21190;58.750;17.004;2022-12-07T10:31:38;-2.90;99.90
34985;DHT22;21190;58.750;17.004;2022-12-07T10:34:12;-2.90;99.90
34985;DHT22;21190;58.750;17.004;2022-12-07T10:36:42;-2.90;99.90
34985;DHT22;21190;58.750;17.004;2022-12-07T10:39:13;-2.90;99.90
34985;DHT22;21190;58.750;17.004;2022-12-07T10:41:56;-2.90;99.90
34985;DHT22;21190;58.750;17.004;2022-12-07T10:44:25;-2.90;99.90
34985;DHT22;21190;58.750;17.004;2022-12-07T10:52:15;-3.00;99.90
34985;DHT22;21190;58.750;17.004;2022-12-07T10:54:47;-3.00;99.90
34985;DHT22;21190;58.750;17.004;2022-12-07T10:59:47;-3.00;99.90
34985;DHT22;21190;58.750;17.004;2022-12-07T11:02:31;-2.90;99.90
34985;DHT22;21190;58.750;17.004;2022-12-07T11:10:26;-3.00;99.90
34985;DHT22;21190;58.750;17.004;2022-12-07T11:26:28;-3.10;99.90
34985;DHT22;21190;58.750;17.004;2022-12-07T11:34:07;-3.10;99.90
34985;DHT22;21190;58.750;17.004;2022-12-07T11:36:43;-3.20;99.90
34985;DHT22;21190;58.750;17.004;2022-12-07T11:41:48;-3.30;99.90
34985;DHT22;21190;58.750;17.004;2022-12-07T11:49:44;-3.40;99.90
34985;DHT22;21190;58.750;17.004;2022-12-07T11:53:14;-3.40;99.90
34985;DHT22;21190;58.750;17.004;2022-12-07T11:55:13;-3.50;99.90
34985;DHT22;21190;58.750;17.004;2022-12-07T11:57:44;-3.40;99.90
34985;DHT22;21190;58.750;17.004;2022-12-07T12:00:13;-3.50;99.90
34985;DHT22;21190;58.750;17.004;2022-12-07T12:02:48;-3.60;99.90
34985;DHT22;21190;58.750;17.004;2022-12-07T12:05:19;-3.60;99.90
34985;DHT22;21190;58.750;17.004;2022-12-07T12:07:50;-3.60;99.90
34985;DHT22;21190;58.750;17.004;2022-12-07T12:16:17;-3.70;99.90
34985;DHT22;21190;58.750;17.004;2022-12-07T12:21:16;-3.70;99.90
34985;DHT22;21190;58.750;17.004;2022-12-07T12:24:19;-3.70;99.90
34985;DHT22;21190;58.750;17.004;2022-12-07T12:26:38;-3.70;99.90
34985;DHT22;21190;58.750;17.004;2022-12-07T12:29:28;-3.60;99.90
34985;DHT22;21190;58.750;17.004;2022-12-07T12:32:06;-3.70;99.90
34985;DHT22;21190;58.750;17.004;2022-12-07T12:34:39;-3.70;99.90
34985;DHT22;21190;58.750;17.004;2022-12-07T12:45:31;-3.80;99.90
34985;DHT22;21190;58.750;17.004;2022-12-07T12:48:26;-3.70;99.90
34985;DHT22;21190;58.750;17.004;2022-12-07T12:51:06;-3.80;99.90
34985;DHT22;21190;58.750;17.004;2022-12-07T12:53:38;-3.80;99.90
34985;DHT22;21190;58.750;17.004;2022-12-07T12:56:48;-3.80;99.90
34985;DHT22;21190;58.750;17.004;2022-12-07T13:01:45;-3.70;99.90
34985;DHT22;21190;58.750;17.004;2022-12-07T13:04:30;-3.80;99.90
34985;DHT22;21190;58.750;17.004;2022-12-07T13:07:01;-3.70;99.90
34985;DHT22;21190;58.750;17.004;2022-12-07T13:09:28;-3.80;99.90
34985;DHT22;21190;58.750;17.004;2022-12-07T13:12:03;-3.80;99.90
34985;DHT22;21190;58.750;17.004;2022-12-07T13:17:01;-3.90;99.90
34985;DHT22;21190;58.750;17.004;2022-12-07T13:24:57;-3.90;99.90
34985;DHT22;21190;58.750;17.004;2022-12-07T13:27:25;-3.90;99.90
34985;DHT22;21190;58.750;17.004;2022-12-07T13:29:54;-3.90;99.90
34985;DHT22;21190;58.750;17.004;2022-12-07T13:32:23;-3.80;99.90
34985;DHT22;21190;58.750;17.004;2022-12-07T13:34:51;-3.80;99.90
34985;DHT22;21190;58.750;17.004;2022-12-07T13:37:25;-3.80;99.90
34985;DHT22;21190;58.750;17.004;2022-12-07T13:39:53;-3.80;99.90
34985;DHT22;21190;58.750;17.004;2022-12-07T13:42:33;-3.80;99.90
34985;DHT22;21190;58.750;17.004;2022-12-07T13:45:17;-3.80;99.90
34985;DHT22;21190;58.750;17.004;2022-12-07T13:47:56;-3.90;99.90
34985;DHT22;21190;58.750;17.004;2022-12-07T13:50:27;-3.90;99.90
34985;DHT22;21190;58.750;17.004;2022-12-07T13:52:58;-3.80;99.90
34985;DHT22;21190;58.750;17.004;2022-12-07T13:55:25;-3.90;99.90
34985;DHT22;21190;58.750;17.004;2022-12-07T13:57:54;-4.00;99.90
34985;DHT22;21190;58.750;17.004;2022-12-07T14:00:26;-4.00;99.90
34985;DHT22;21190;58.750;17.004;2022-12-07T14:05:39;-4.00;99.90
34985;DHT22;21190;58.750;17.004;2022-12-07T14:18:44;-4.10;99.90
34985;DHT22;21190;58.750;17.004;2022-12-07T14:21:15;-4.10;99.90
34985;DHT22;21190;58.750;17.004;2022-12-07T14:23:43;-4.20;99.90
34985;DHT22;21190;58.750;17.004;2022-12-07T14:26:12;-4.20;99.90
34985;DHT22;21190;58.750;17.004;2022-12-07T14:28:43;-4.20;99.90
34985;DHT22;21190;58.750;17.004;2022-12-07T14:31:11;-4.40;99.90
34985;DHT22;21190;58.750;17.004;2022-12-07T14:33:48;-4.40;99.90
34985;DHT22;21190;58.750;17.004;2022-12-07T14:36:15;-4.40;99.90
34985;DHT22;21190;58.750;17.004;2022-12-07T14:38:42;-4.40;99.90
34985;DHT22;21190;58.750;17.004;2022-12-07T14:41:13;-4.40;99.90
34985;DHT22;21190;58.750;17.004;2022-12-07T14:43:59;-4.40;99.90
34985;DHT22;21190;58.750;17.004;2022-12-07T14:46:47;-4.40;99.90
34985;DHT22;21190;58.750;17.004;2022-12-07T14:49:14;-4.50;99.90
34985;DHT22;21190;58.750;17.004;2022-12-07T14:52:01;-4.40;99.90
34985;DHT22;21190;58.750;17.004;2022-12-07T14:54:48;-4.40;99.90
34985;DHT22;21190;58.750;17.004;2022-12-07T14:57:15;-4.40;99.90
34985;DHT22;21190;58.750;17.004;2022-12-07T14:59:42;-4.30;99.90
34985;DHT22;21190;58.750;17.004;2022-12-07T15:02:12;-4.30;99.90
34985;DHT22;21190;58.750;17.004;2022-12-07T15:04:39;-4.30;99.90
34985;DHT22;21190;58.750;17.004;2022-12-07T15:07:09;-4.30;99.90
34985;DHT22;21190;58.750;17.004;2022-12-07T15:09:37;-4.30;99.90
34985;DHT22;21190;58.750;17.004;2022-12-07T15:12:04;-4.20;99.90
34985;DHT22;21190;58.750;17.004;2022-12-07T15:14:31;-4.30;99.90
34985;DHT22;21190;58.750;17.004;2022-12-07T15:16:58;-4.30;99.90
34985;DHT22;21190;58.750;17.004;2022-12-07T15:19:35;-4.30;99.90
34985;DHT22;21190;58.750;17.004;2022-12-07T15:22:02;-4.40;99.90
34985;DHT22;21190;58.750;17.004;2022-12-07T15:24:29;-4.40;99.90
34985;DHT22;21190;58.750;17.004;2022-12-07T15:26:56;-4.40;99.90
34985;DHT22;21190;58.750;17.004;2022-12-07T15:29:22;-4.50;99.90
34985;DHT22;21190;58.750;17.004;2022-12-07T15:31:50;-4.50;99.90
34985;DHT22;21190;58.750;17.004;2022-12-07T15:34:26;-4.50;99.90
34985;DHT22;21190;58.750;17.004;2022-12-07T15:37:03;-4.50;99.90
34985;DHT22;21190;58.750;17.004;2022-12-07T15:39:30;-4.50;99.90
34985;DHT22;21190;58.750;17.004;2022-12-07T15:41:57;-4.60;99.90
34985;DHT22;21190;58.750;17.004;2022-12-07T15:44:24;-4.60;99.90
34985;DHT22;21190;58.750;17.004;2022-12-07T15:47:09;-4.50;99.90
34985;DHT22;21190;58.750;17.004;2022-12-07T15:49:36;-4.60;99.90
34985;DHT22;21190;58.750;17.004;2022-12-07T15:52:03;-4.60;99.90
34985;DHT22;21190;58.750;17.004;2022-12-07T15:54:30;-4.60;99.90
34985;DHT22;21190;58.750;17.004;2022-12-07T15:56:58;-4.60;99.90
34985;DHT22;21190;58.750;17.004;2022-12-07T15:59:26;-4.60;99.90
34985;DHT22;21190;58.750;17.004;2022-12-07T16:01:53;-4.60;99.90
34985;DHT22;21190;58.750;17.004;2022-12-07T16:04:20;-4.60;99.90
34985;DHT22;21190;58.750;17.004;2022-12-07T16:06:47;-4.70;99.90
34985;DHT22;21190;58.750;17.004;2022-12-07T16:09:14;-4.70;99.90
34985;DHT22;21190;58.750;17.004;2022-12-07T16:11:41;-4.70;99.90
34985;DHT22;21190;58.750;17.004;2022-12-07T16:14:08;-4.70;99.90
34985;DHT22;21190;58.750;17.004;2022-12-07T16:16:35;-4.70;99.90
34985;DHT22;21190;58.750;17.004;2022-12-07T16:19:02;-4.70;99.90
34985;DHT22;21190;58.750;17.004;2022-12-07T16:21:29;-4.70;99.90
34985;DHT22;21190;58.750;17.004;2022-12-07T16:23:59;-4.60;99.90
34985;DHT22;21190;58.750;17.004;2022-12-07T16:26:26;-4.70;99.90
34985;DHT22;21190;58.750;17.004;2022-12-07T16:28:53;-4.70;99.90
34985;DHT22;21190;58.750;17.004;2022-12-07T16:31:22;-4.70;99.90
34985;DHT22;21190;58.750;17.004;2022-12-07T16:33:50;-4.70;99.90
34985;DHT22;21190;58.750;17.004;2022-12-07T16:36:17;-4.70;99.90
34985;DHT22;21190;58.750;17.004;2022-12-07T16:39:05;-4.70;99.90
34985;DHT22;21190;58.750;17.004;2022-12-07T16:41:32;-4.70;99.90
34985;DHT22;21190;58.750;17.004;2022-12-07T16:44:06;-4.70;99.90
34985;DHT22;21190;58.750;17.004;2022-12-07T16:46:34;-4.70;99.90
34985;DHT22;21190;58.750;17.004;2022-12-07T16:49:02;-4.70;99.90
34985;DHT22;21190;58.750;17.004;2022-12-07T16:51:30;-4.70;99.90
34985;DHT22;21190;58.750;17.004;2022-12-07T16:53:57;-4.80;99.90
34985;DHT22;21190;58.750;17.004;2022-12-07T16:56:23;-4.80;99.90
34985;DHT22;21190;58.750;17.004;2022-12-07T16:58:53;-4.90;99.90
34985;DHT22;21190;58.750;17.004;2022-12-07T17:01:20;-4.90;99.90
34985;DHT22;21190;58.750;17.004;2022-12-07T17:03:50;-4.80;99.90
34985;DHT22;21190;58.750;17.004;2022-12-07T17:06:18;-4.80;99.90
34985;DHT22;21190;58.750;17.004;2022-12-07T17:08:45;-4.90;99.90
34985;DHT22;21190;58.750;17.004;2022-12-07T17:11:14;-4.90;99.90
34985;DHT22;21190;58.750;17.004;2022-12-07T17:13:41;-4.90;99.90
34985;DHT22;21190;58.750;17.004;2022-12-07T17:16:26;-5.00;99.90
34985;DHT22;21190;58.750;17.004;2022-12-07T17:18:54;-5.00;99.90
34985;DHT22;21190;58.750;17.004;2022-12-07T17:21:21;-5.10;99.90
34985;DHT22;21190;58.750;17.004;2022-12-07T17:23:49;-5.10;99.90
34985;DHT22;21190;58.750;17.004;2022-12-07T17:26:17;-5.10;99.90
34985;DHT22;21190;58.750;17.004;2022-12-07T17:28:44;-5.20;99.90
34985;DHT22;21190;58.750;17.004;2022-12-07T17:31:12;-5.20;99.90
34985;DHT22;21190;58.750;17.004;2022-12-07T17:33:40;-5.20;99.90
34985;DHT22;21190;58.750;17.004;2022-12-07T17:36:14;-5.20;99.90